Share

Rothville, MO (64676)

Barlow Back Yard (KMOHALE2) Elev 755 ft | 39.59 °N, 93.30 °W | Change Station

Current weather conditions updated 9 minutes ago

Clear
Clear
50.9 °F
Feels Like 50.9 °F
N
4.7
Wind Variable Wind from ESE
Sunrise 6:29 AM
Sunset 7:54 PM
Moon Waning Gibbous

Today is forecast to be nearly the same temperature as yesterday.

Pressure 30.25 in
Visibility 10.0 miles
Clouds Clear
Dew Point 43 °F
Humidity 73%
Rainfall 0.00 in
Snow Depth Not available.
UV 0 out of 16
Pollen 10.50 out of 12
Air Quality Not available.
Flu Activity Sporadic
METAR KIRK 191155Z AUTO 11008KT 10SM CLR 07/02 A3023 RMK AO2 SLP242 T00720022 10094 20067 53006

More Conditions Fewer Conditions

Pressure 30.25 in
Visibility 10.0 miles
Clouds Clear
Dew Point 43 °F
Humidity 73%
Rainfall 0.00 in
Snow Depth Not available.
UV 0 out of 16
Pollen 10.50 out of 12
Air Quality Not available.
Flu Activity Sporadic
METAR KIRK 191155Z AUTO 11008KT 10SM CLR 07/02 A3023 RMK AO2 SLP242 T00720022 10094 20067 53006

More Conditions Fewer Conditions

10-Day Weather Forecast

Almanac

Astronomy

Apr. 19, 2014 Rise Set
Actual Time 6:29 AM CDT 7:54 PM CDT
Civil Twilight 6:00 AM CDT 8:22 PM CDT
Nautical Twilight 5:27 AM CDT 8:56 PM CDT
Astronomical Twilight 4:51 AM CDT 9:32 PM CDT
Moon No Moon Rise 9:48 AM CDT
Length of Visible Light 14h 21m
Length of Day
13h 25m
Tomorrow will be 2m 27s longer.
Waning Gibbous, 80% of the Moon is Illuminated
Today
Waning Gibbous
Apr 22
Last Quarter
Apr 29
New
May 6
First Quarter
May 14
Full

Today's Extremes

State Highs State Lows

Community

  • Bleeding Hearts
    Bleeding Hearts
  • Sunset Silhouettes
    Sunset Silhouettes
  • FL sunset Perico Isle
    FL sunset Perico Isle
  • Cloudy spring view
    Cloudy spring view
  • Old barn
    Old barn

WunderPhotos

Upload Photos

1,702,687 photos uploaded!

Nearby

Snow Depth

Station Depth Elevation
No new snow has been reported.

Coastal Water Temperatures

Place Temperature
No Stations Reporting

Earthquake Activity

City Distance Mag. Time & Date
No recent earthquake activity has been reported nearby.
Minimum magnitude displayed is 2.5.

Nearby Weather Stations

Station Location Temp. Windchill Dew Point Humidity Wind Precip. Elev Updated Type
Barlow Back Yard, Hale, MO 50.9 °F - 43 °F 73% ESE  at  4.7 mph - / hr 755 ft 6:51 AM CDT Normal
ENGLERT - KMOHALE3, Hale, MO 50.9 °F - 47 °F 85% North  at  0.0 mph 0.00 in / hr 764 ft 7:01 AM CDT Rapid Fire
RAWS CHILLICOTHE MO, Chillicothe, MO 49 °F 46 °F 40 °F 71% SE  at  6 mph 0.00 in / hr 779 ft 6:13 AM CDT MADIS

Show More Stations Show Fewer Stations

What do you think?

We're not finished. Please let us know what you like, what you don't like, and what you are still missing.